Time;durP1;ratioP1;P1;durP2;ratioP2;P2;SDS_P1;SDS_P2;PMS_P1;PMS_P2;Temp;Humidity;BMP_temperature;BMP_pressure;BME280_temperature;BME280_humidity;BME280_pressure;Samples;Min_cycle;Max_cycle;Signal;HPM_P1;HPM_P2
2022/08/11 00:01:48;;;;;;;3.05;0.90;;;20.90;99.90;;;;;;4978200;28;20038;-71
2022/08/11 00:04:15;;;;;;;5.80;1.35;;;20.80;99.90;;;;;;4985123;28;20566;-72
2022/08/11 00:06:44;;;;;;;4.60;1.00;;;20.80;99.90;;;;;;4985400;28;20119;-71
2022/08/11 00:09:20;;;;;;;1.63;0.80;;;20.80;99.90;;;;;;4985574;28;20089;-70
2022/08/11 00:11:50;;;;;;;1.77;0.73;;;20.80;99.90;;;;;;4977321;28;20129;-70
2022/08/11 00:14:27;;;;;;;1.67;0.77;;;20.80;99.90;;;;;;4977554;28;20785;-71
2022/08/11 00:17:02;;;;;;;2.78;0.70;;;20.70;99.90;;;;;;4975348;28;20042;-72
2022/08/11 00:19:31;;;;;;;3.10;0.80;;;20.80;99.90;;;;;;4977047;28;20050;-72
2022/08/11 00:21:58;;;;;;;2.17;0.93;;;20.70;99.90;;;;;;4979769;28;20046;-72
2022/08/11 00:24:25;;;;;;;2.90;1.10;;;20.70;99.90;;;;;;4973431;28;20045;-72
2022/08/11 00:26:52;;;;;;;4.25;1.20;;;20.60;99.90;;;;;;4981541;28;20038;-70
2022/08/11 00:29:19;;;;;;;7.05;1.30;;;20.60;99.90;;;;;;4976948;28;20104;-72
2022/08/11 00:31:51;;;;;;;2.17;1.00;;;20.60;99.90;;;;;;4974951;28;20039;-71
2022/08/11 00:34:25;;;;;;;1.85;0.60;;;20.60;99.90;;;;;;4975951;28;20038;-71
2022/08/11 00:37:02;;;;;;;1.42;0.65;;;20.50;99.90;;;;;;4975151;28;20571;-71
2022/08/11 00:39:32;;;;;;;3.58;1.38;;;20.50;99.90;;;;;;4977084;28;20070;-72
2022/08/11 00:42:17;;;;;;;10.70;0.80;;;20.50;99.90;;;;;;4976397;28;20053;-72
2022/08/11 00:45:21;;;;;;;3.80;0.70;;;20.50;99.90;;;;;;4997120;28;20037;-72
2022/08/11 00:48:03;;;;;;;2.05;1.02;;;20.50;99.90;;;;;;4977750;28;20239;-71
2022/08/11 00:50:50;;;;;;;3.83;1.50;;;20.50;99.90;;;;;;4977323;28;20034;-70
2022/08/11 00:53:37;;;;;;;5.15;1.10;;;20.50;99.80;;;;;;4976996;28;20032;-72
2022/08/11 00:56:23;;;;;;;2.28;0.70;;;20.40;99.90;;;;;;4977342;28;20038;-71
2022/08/11 00:59:26;;;;;;;3.30;1.30;;;20.40;99.90;;;;;;4977363;28;20057;-72
2022/08/11 01:02:13;;;;;;;4.85;0.82;;;20.30;99.90;;;;;;4998098;28;20133;-72
2022/08/11 01:05:12;;;;;;;2.17;1.08;;;20.30;99.90;;;;;;4982889;28;20042;-73
2022/08/11 01:08:15;;;;;;;2.35;0.60;;;20.30;99.90;;;;;;5005222;28;20043;-72
2022/08/11 01:11:01;;;;;;;1.63;0.60;;;20.30;99.90;;;;;;5005151;28;20038;-71
2022/08/11 01:14:16;;;;;;;2.25;0.73;;;20.20;99.90;;;;;;5011093;28;20039;-72
2022/08/11 01:16:58;;;;;;;2.58;0.60;;;20.20;99.90;;;;;;5005031;28;20122;-71
2022/08/11 01:19:33;;;;;;;4.47;1.23;;;20.20;99.90;;;;;;5005776;28;20125;-72
2022/08/11 01:22:19;;;;;;;1.50;0.60;;;20.10;99.90;;;;;;4977496;28;20074;-71
2022/08/11 01:25:15;;;;;;;5.60;0.82;;;20.10;99.90;;;;;;4978248;28;20128;-71
2022/08/11 01:28:07;;;;;;;1.27;0.88;;;20.10;99.90;;;;;;4976520;28;20479;-72
2022/08/11 01:30:41;;;;;;;2.92;0.82;;;20.00;99.90;;;;;;4978649;28;20125;-71
2022/08/11 01:33:28;;;;;;;2.40;0.70;;;20.00;99.90;;;;;;4979843;28;20074;-72
2022/08/11 01:36:33;;;;;;;1.98;0.70;;;20.00;99.90;;;;;;5012698;28;20685;-72
2022/08/11 01:39:40;;;;;;;5.20;1.75;;;20.00;99.90;;;;;;4980125;28;20120;-74
2022/08/11 01:45:34;;;;;;;2.45;1.20;;;19.90;99.90;;;;;;4977592;28;20113;-70
2022/08/11 01:48:02;;;;;;;1.33;0.77;;;19.90;99.90;;;;;;4976820;28;20038;-72
2022/08/11 01:50:46;;;;;;;1.27;0.60;;;19.90;99.90;;;;;;4973564;28;20039;-70
2022/08/11 01:53:37;;;;;;;4.90;0.73;;;19.80;99.90;;;;;;4977085;28;20045;-72
2022/08/11 01:56:33;;;;;;;2.95;0.90;;;19.80;99.90;;;;;;4977305;28;20038;-70
2022/08/11 01:59:14;;;;;;;1.73;0.70;;;19.70;99.90;;;;;;4976340;28;20141;-71
2022/08/11 02:01:39;;;;;;;2.38;1.30;;;19.70;99.90;;;;;;4977922;28;20053;-72
2022/08/11 02:04:29;;;;;;;2.33;0.85;;;19.70;99.90;;;;;;4981734;28;20038;-71
2022/08/11 02:07:14;;;;;;;2.90;0.70;;;19.70;99.90;;;;;;4984149;28;20144;-72
2022/08/11 02:09:58;;;;;;;4.13;0.95;;;19.60;99.90;;;;;;4980915;28;20045;-72
2022/08/11 02:12:49;;;;;;;7.25;1.40;;;19.60;99.90;;;;;;5014097;28;20415;-71
2022/08/11 02:15:36;;;;;;;2.85;1.00;;;19.60;99.90;;;;;;4981370;28;20036;-71
2022/08/11 02:23:38;;;;;;;1.13;0.80;;;19.50;99.90;;;;;;4980389;28;20066;-71
2022/08/11 02:24:23;;;;;;;3.55;0.90;;;19.50;99.90;;;;;;4983276;28;20045;-71
2022/08/11 02:27:01;;;;;;;4.80;0.93;;;19.50;99.90;;;;;;4984613;28;20031;-72
2022/08/11 02:30:06;;;;;;;3.45;1.00;;;19.50;99.90;;;;;;4980300;28;20030;-72
2022/08/11 02:36:03;;;;;;;3.63;1.02;;;19.40;99.90;;;;;;4984185;28;20029;-70
2022/08/11 02:38:36;;;;;;;3.60;0.88;;;19.50;99.90;;;;;;4979857;28;20039;-72
2022/08/11 02:43:58;;;;;;;3.55;0.80;;;19.40;99.90;;;;;;4979108;28;20560;-71
2022/08/11 02:46:35;;;;;;;6.43;1.20;;;19.40;99.90;;;;;;5008127;28;20035;-71
2022/08/11 02:52:44;;;;;;;3.35;1.00;;;19.40;99.90;;;;;;4986149;28;20399;-72
2022/08/11 02:55:21;;;;;;;2.10;1.10;;;19.40;99.90;;;;;;4985387;28;20088;-72
2022/08/11 02:58:04;;;;;;;1.48;0.90;;;19.40;99.90;;;;;;4983538;28;20082;-72
2022/08/11 03:00:43;;;;;;;2.67;1.00;;;19.40;99.90;;;;;;4988726;28;20581;-71
2022/08/11 03:03:20;;;;;;;2.10;0.90;;;19.40;99.90;;;;;;4979778;28;20118;-72
2022/08/11 03:05:57;;;;;;;4.32;0.95;;;19.40;99.90;;;;;;4975461;28;20034;-71
2022/08/11 03:08:41;;;;;;;3.72;1.00;;;19.40;99.90;;;;;;4978967;28;20038;-70
2022/08/11 03:17:27;;;;;;;2.55;1.02;;;19.40;99.90;;;;;;4976714;28;20050;-71
2022/08/11 03:19:53;;;;;;;2.45;1.17;;;19.40;99.90;;;;;;4974800;28;20125;-71
2022/08/11 03:22:25;;;;;;;4.15;1.10;;;19.30;99.90;;;;;;4978307;28;20536;-73
2022/08/11 03:25:04;;;;;;;3.97;1.30;;;19.30;99.90;;;;;;4980916;28;20090;-70
2022/08/11 03:27:35;;;;;;;5.47;1.40;;;19.30;99.90;;;;;;4986406;28;20034;-72
2022/08/11 03:30:10;;;;;;;2.58;1.17;;;19.30;99.90;;;;;;4983104;28;20129;-71
2022/08/11 03:36:04;;;;;;;2.50;1.17;;;19.20;99.90;;;;;;4990613;28;20151;-72
2022/08/11 03:38:56;;;;;;;4.55;1.30;;;19.20;99.90;;;;;;4985185;28;20569;-72
2022/08/11 03:41:46;;;;;;;5.68;1.65;;;19.20;99.90;;;;;;4983877;28;20031;-69
2022/08/11 03:44:26;;;;;;;5.68;1.30;;;19.20;99.90;;;;;;4977342;28;20487;-72
2022/08/11 03:47:30;;;;;;;2.08;1.02;;;19.10;99.90;;;;;;4978289;28;20030;-70
2022/08/11 03:50:18;;;;;;;5.45;1.00;;;19.10;99.90;;;;;;4978976;28;20065;-72
2022/08/11 03:53:02;;;;;;;2.38;0.90;;;19.10;99.90;;;;;;4999341;28;20034;-72
2022/08/11 03:55:52;;;;;;;9.35;1.10;;;19.10;99.90;;;;;;4977583;28;20030;-72
2022/08/11 03:58:32;;;;;;;4.15;1.30;;;19.10;99.90;;;;;;5009993;28;20030;-72
2022/08/11 04:01:07;;;;;;;3.47;1.20;;;19.00;99.90;;;;;;4979389;28;20806;-71
2022/08/11 04:04:08;;;;;;;4.43;0.98;;;19.00;99.90;;;;;;4975373;28;20039;-71
2022/08/11 04:07:08;;;;;;;2.53;1.17;;;19.00;99.90;;;;;;4978933;28;20031;-71
2022/08/11 04:09:46;;;;;;;2.78;1.10;;;19.00;99.90;;;;;;4998615;28;20023;-72
2022/08/11 04:12:27;;;;;;;3.20;1.40;;;19.00;99.90;;;;;;4983998;28;20638;-72
2022/08/11 04:18:52;;;;;;;2.25;1.00;;;19.00;99.90;;;;;;4978738;28;20108;-73
2022/08/11 04:21:42;;;;;;;6.70;1.20;;;18.90;99.90;;;;;;4978939;28;20039;-71
2022/08/11 04:24:08;;;;;;;3.92;1.27;;;19.00;99.90;;;;;;4979181;28;20061;-72
2022/08/11 04:26:52;;;;;;;2.97;1.15;;;18.90;99.90;;;;;;4978688;28;20397;-72
2022/08/11 04:29:49;;;;;;;4.18;1.20;;;18.90;99.90;;;;;;5000955;28;20035;-72
2022/08/11 04:32:52;;;;;;;2.72;1.17;;;18.90;99.90;;;;;;4976598;28;20041;-72
2022/08/11 04:35:32;;;;;;;2.10;1.17;;;18.80;99.90;;;;;;4979012;28;20057;-71
2022/08/11 04:38:36;;;;;;;5.38;1.40;;;18.80;99.90;;;;;;5006894;28;20030;-71
2022/08/11 04:41:16;;;;;;;2.70;1.23;;;18.80;99.90;;;;;;4999661;28;20128;-72
2022/08/11 04:43:57;;;;;;;3.03;1.20;;;18.80;99.90;;;;;;4973301;28;20042;-72
2022/08/11 05:01:39;;;;;;;2.38;1.23;;;18.80;99.90;;;;;;4977452;28;20042;-70
2022/08/11 05:02:35;;;;;;;2.22;1.25;;;18.80;99.90;;;;;;4987638;28;20093;-70
2022/08/11 05:05:35;;;;;;;3.83;1.40;;;18.80;99.90;;;;;;4981755;28;20949;-72
2022/08/11 05:08:09;;;;;;;2.78;1.58;;;18.90;99.90;;;;;;5016557;28;20046;-71
2022/08/11 05:11:10;;;;;;;4.53;1.30;;;18.80;99.90;;;;;;4989422;28;20414;-71
2022/08/11 05:36:49;;;;;;;2.63;1.30;;;19.10;99.90;;;;;;4981214;28;20430;-69
2022/08/11 05:56:19;;;;;;;5.65;1.23;;;19.50;99.90;;;;;;4982051;28;20065;-71
2022/08/11 05:58:56;;;;;;;2.40;1.10;;;19.60;99.90;;;;;;4982594;28;20134;-71
2022/08/11 06:01:25;;;;;;;3.08;1.30;;;19.70;99.90;;;;;;4982640;28;20038;-71
2022/08/11 06:07:18;;;;;;;2.97;0.90;;;19.80;99.90;;;;;;4983309;28;20045;-70
2022/08/11 06:09:49;;;;;;;4.07;1.00;;;20.00;99.60;;;;;;4997559;28;20057;-71
2022/08/11 06:12:25;;;;;;;3.97;1.10;;;20.10;99.10;;;;;;4994632;28;20495;-70
2022/08/11 06:14:54;;;;;;;2.88;0.98;;;20.30;99.20;;;;;;4987674;28;20050;-70
2022/08/11 06:17:25;;;;;;;2.65;0.90;;;20.40;98.90;;;;;;4984486;28;20030;-72
2022/08/11 06:19:57;;;;;;;4.10;1.25;;;20.50;98.60;;;;;;4985318;28;20114;-70
2022/08/11 06:22:24;;;;;;;1.70;0.90;;;20.60;98.60;;;;;;4985110;28;20034;-70
2022/08/11 06:24:59;;;;;;;2.47;1.35;;;20.70;98.40;;;;;;4984119;28;20050;-71
2022/08/11 06:27:28;;;;;;;4.10;1.15;;;20.90;97.90;;;;;;4982203;28;20088;-68
2022/08/11 06:29:55;;;;;;;2.83;1.10;;;21.10;97.40;;;;;;4986876;28;20042;-69
2022/08/11 06:32:24;;;;;;;4.07;1.27;;;21.40;97.00;;;;;;4981947;28;20042;-71
2022/08/11 06:35:11;;;;;;;1.70;0.90;;;21.60;96.80;;;;;;4985656;28;20038;-71
2022/08/11 06:37:55;;;;;;;1.77;0.90;;;21.80;96.60;;;;;;4983962;28;20049;-71
2022/08/11 06:44:01;;;;;;;16.60;1.38;;;22.90;96.20;;;;;;4985545;28;20041;-71
2022/08/11 06:46:37;;;;;;;2.75;0.93;;;23.60;94.80;;;;;;4982240;28;20133;-71
2022/08/11 06:52:01;;;;;;;5.40;0.70;;;25.20;92.60;;;;;;4981467;28;20584;-71
2022/08/11 06:54:34;;;;;;;3.28;0.80;;;26.00;91.40;;;;;;4981785;28;20533;-71
2022/08/11 07:02:42;;;;;;;1.77;0.80;;;28.30;89.40;;;;;;4983732;28;20540;-72
2022/08/11 07:05:16;;;;;;;2.53;0.93;;;29.10;86.30;;;;;;4983304;28;20034;-72
2022/08/11 07:16:28;;;;;;;4.13;1.30;;;31.60;77.80;;;;;;4984074;28;20092;-70
2022/08/11 07:30:11;;;;;;;4.70;1.30;;;32.10;71.90;;;;;;4983968;28;20057;-70
2022/08/11 07:32:49;;;;;;;1.83;0.80;;;31.50;72.10;;;;;;4983731;28;20285;-71
2022/08/11 07:35:20;;;;;;;2.22;0.85;;;31.10;72.00;;;;;;4981864;28;20034;-72
2022/08/11 07:37:49;;;;;;;2.00;1.08;;;30.70;72.00;;;;;;4979950;28;20040;-71
2022/08/11 07:40:21;;;;;;;2.10;0.85;;;29.80;72.90;;;;;;4984314;28;20041;-72
2022/08/11 07:42:48;;;;;;;0.98;0.70;;;29.20;74.30;;;;;;4978878;28;20890;-72
2022/08/11 07:53:30;;;;;;;2.97;0.80;;;27.40;77.80;;;;;;4982844;28;20041;-71
2022/08/11 07:55:58;;;;;;;1.70;0.85;;;27.10;77.60;;;;;;4981795;28;20039;-71
2022/08/11 08:17:57;;;;;;;1.38;0.70;;;26.80;77.10;;;;;;4981714;28;20088;-71
2022/08/11 08:20:33;;;;;;;5.18;0.70;;;26.80;76.60;;;;;;4979686;28;20035;-71
2022/08/11 08:23:01;;;;;;;2.60;0.88;;;26.90;77.60;;;;;;4982148;28;20053;-72
2022/08/11 08:25:29;;;;;;;0.68;0.50;;;26.90;76.70;;;;;;4986393;28;20042;-71
2022/08/11 08:27:56;;;;;;;1.58;0.90;;;26.90;76.30;;;;;;4982449;28;20087;-70
2022/08/11 08:33:12;;;;;;;3.63;0.95;;;27.00;77.20;;;;;;4983084;28;20096;-72
2022/08/11 08:35:40;;;;;;;3.67;0.80;;;26.90;77.80;;;;;;4983078;28;20049;-72
2022/08/11 08:38:05;;;;;;;3.60;0.93;;;26.90;78.30;;;;;;4985365;28;20483;-71
2022/08/11 08:40:32;;;;;;;4.53;0.65;;;26.90;78.20;;;;;;4982598;28;20048;-69
2022/08/11 08:43:03;;;;;;;1.58;0.82;;;27.00;76.70;;;;;;4984406;28;20096;-71
2022/08/11 08:45:33;;;;;;;3.67;0.70;;;27.10;76.90;;;;;;4982848;28;20133;-71
2022/08/11 08:48:01;;;;;;;;;;;27.30;74.90;;;;;;4984163;28;20049;-72
2022/08/11 08:53:20;;;;;;;3.25;0.77;;;27.50;73.60;;;;;;4982757;28;20041;-71
2022/08/11 08:55:49;;;;;;;1.02;0.68;;;27.60;73.80;;;;;;4981838;28;20066;-70
2022/08/11 08:58:15;;;;;;;1.17;0.40;;;27.60;73.60;;;;;;4979304;28;20038;-70
2022/08/11 09:00:46;;;;;;;3.28;0.73;;;27.80;74.60;;;;;;4980702;28;20911;-70
2022/08/11 09:03:13;;;;;;;2.50;0.80;;;27.80;75.60;;;;;;4980921;28;20743;-72
2022/08/11 09:05:39;;;;;;;2.40;0.90;;;27.80;76.10;;;;;;4983673;28;20105;-71
2022/08/11 09:08:06;;;;;;;1.27;0.55;;;27.80;75.40;;;;;;4981478;28;20049;-72
2022/08/11 09:10:32;;;;;;;1.60;0.70;;;27.90;76.20;;;;;;4981422;28;20156;-70
2022/08/11 09:12:59;;;;;;;4.25;0.75;;;28.00;73.20;;;;;;4979775;28;20049;-72
2022/08/11 09:15:27;;;;;;;1.45;0.68;;;28.00;73.10;;;;;;4985544;28;20049;-70
2022/08/11 09:18:02;;;;;;;2.47;1.02;;;28.10;74.20;;;;;;4982365;28;20110;-71
2022/08/11 09:20:32;;;;;;;2.70;0.80;;;28.10;73.70;;;;;;4981809;28;20046;-70
2022/08/11 09:28:31;;;;;;;1.80;0.85;;;28.40;72.10;;;;;;4983019;28;20131;-72
2022/08/11 09:31:00;;;;;;;5.10;1.52;;;28.50;71.20;;;;;;4983813;28;20868;-70
2022/08/11 09:33:28;;;;;;;4.32;0.70;;;28.80;69.00;;;;;;4982081;28;20038;-72
2022/08/11 09:35:54;;;;;;;2.97;1.15;;;28.80;69.90;;;;;;4984367;28;20043;-71
2022/08/11 09:41:08;;;;;;;2.55;0.85;;;28.90;69.10;;;;;;4981663;28;20069;-72
2022/08/11 09:46:29;;;;;;;3.38;0.60;;;29.10;69.40;;;;;;4979851;28;20041;-70
2022/08/11 09:48:58;;;;;;;4.03;0.95;;;29.20;69.20;;;;;;5012724;28;20392;-71
2022/08/11 09:51:28;;;;;;;4.83;0.90;;;29.20;68.70;;;;;;4984015;28;20378;-70
2022/08/11 09:53:54;;;;;;;6.03;1.05;;;29.20;68.20;;;;;;4982839;28;20046;-71
2022/08/11 09:59:07;;;;;;;1.75;0.73;;;29.40;67.70;;;;;;4982992;28;20123;-71
2022/08/11 10:01:51;;;;;;;1.88;0.75;;;29.40;67.80;;;;;;4980180;28;20038;-72
2022/08/11 10:04:37;;;;;;;2.85;0.80;;;29.50;67.90;;;;;;4980810;28;20038;-71
2022/08/11 10:07:05;;;;;;;2.40;0.70;;;29.60;68.00;;;;;;4983370;28;20037;-72
2022/08/11 10:09:46;;;;;;;2.97;0.55;;;29.70;68.80;;;;;;4980237;28;20046;-70
2022/08/11 10:12:26;;;;;;;4.05;0.85;;;29.70;67.10;;;;;;4983336;28;20046;-72
2022/08/11 10:18:41;;;;;;;2.22;0.52;;;29.80;65.90;;;;;;4985033;28;20033;-71
2022/08/11 10:20:34;;;;;;;1.77;0.80;;;29.90;65.30;;;;;;4981233;28;20080;-72
2022/08/11 10:28:31;;;;;;;2.22;0.65;;;30.30;62.40;;;;;;4980414;28;20516;-71
2022/08/11 10:34:05;;;;;;;2.28;0.60;;;30.30;61.40;;;;;;4979792;28;20614;-72
2022/08/11 10:36:41;;;;;;;2.03;0.75;;;30.40;60.60;;;;;;4978527;28;20038;-71
2022/08/11 10:39:09;;;;;;;7.72;0.55;;;30.50;60.70;;;;;;4977804;28;20045;-70
2022/08/11 10:44:21;;;;;;;2.38;0.52;;;30.50;60.50;;;;;;4980555;28;20049;-71
2022/08/11 10:49:32;;;;;;;2.67;0.55;;;30.60;59.40;;;;;;4980656;28;20136;-72
2022/08/11 11:00:16;;;;;;;1.73;0.60;;;30.50;59.20;;;;;;4983472;28;20048;-72
2022/08/11 11:02:44;;;;;;;1.67;0.50;;;30.50;58.90;;;;;;4980544;28;20129;-72
2022/08/11 11:05:23;;;;;;;3.55;0.40;;;30.60;59.30;;;;;;4981601;28;20035;-72
2022/08/11 11:08:51;;;;;;;0.98;0.30;;;30.60;59.40;;;;;;4982340;28;20042;-72
2022/08/11 11:10:48;;;;;;;1.08;0.40;;;30.60;59.70;;;;;;4984094;28;20045;-72
2022/08/11 11:18:44;;;;;;;1.42;0.30;;;30.60;59.10;;;;;;4981985;28;20112;-72
2022/08/11 11:21:14;;;;;;;4.90;0.88;;;30.50;60.00;;;;;;4983558;28;20113;-72
2022/08/11 11:23:46;;;;;;;3.35;0.77;;;30.50;60.90;;;;;;4982289;28;20074;-72
2022/08/11 11:26:28;;;;;;;2.05;0.60;;;30.50;60.10;;;;;;4981175;28;20049;-72
2022/08/11 11:29:19;;;;;;;3.75;0.60;;;30.50;60.00;;;;;;5013792;28;20705;-71
2022/08/11 11:31:50;;;;;;;3.38;0.57;;;30.40;61.30;;;;;;4982378;28;20074;-71
2022/08/11 11:34:22;;;;;;;3.58;0.63;;;30.40;61.20;;;;;;4983919;28;20042;-70
2022/08/11 11:36:52;;;;;;;1.02;0.63;;;30.30;61.90;;;;;;4981638;28;20065;-71
2022/08/11 11:39:21;;;;;;;2.25;0.85;;;30.40;63.00;;;;;;4983344;28;20046;-72
2022/08/11 11:41:50;;;;;;;0.80;0.50;;;30.40;62.10;;;;;;4982860;28;20542;-70
2022/08/11 11:44:17;;;;;;;1.55;0.82;;;30.50;63.40;;;;;;4984418;28;20038;-72
2022/08/11 11:46:44;;;;;;;1.92;0.57;;;30.60;62.20;;;;;;4982772;28;20474;-72
2022/08/11 11:49:11;;;;;;;2.92;0.70;;;30.70;60.30;;;;;;4985427;28;20145;-72
2022/08/11 11:51:37;;;;;;;3.30;0.60;;;30.70;59.50;;;;;;4983187;28;20034;-71
2022/08/11 11:54:04;;;;;;;4.70;0.82;;;30.60;59.50;;;;;;4982594;28;20078;-70
2022/08/11 11:56:30;;;;;;;4.35;0.90;;;30.50;60.10;;;;;;4981089;28;20169;-72
2022/08/11 12:01:43;;;;;;;1.98;0.50;;;30.50;60.10;;;;;;4983961;28;20088;-71
2022/08/11 12:04:12;;;;;;;10.30;0.80;;;30.50;60.60;;;;;;4978693;28;20109;-72
2022/08/11 12:06:38;;;;;;;2.05;0.52;;;30.50;60.50;;;;;;4982348;28;20146;-71
2022/08/11 12:09:05;;;;;;;4.32;0.95;;;30.50;59.50;;;;;;4980842;28;20068;-70
2022/08/11 12:14:17;;;;;;;3.08;0.77;;;30.40;59.40;;;;;;4980031;28;20057;-71
2022/08/11 12:16:46;;;;;;;2.03;0.70;;;30.40;58.90;;;;;;4983370;28;20038;-72
2022/08/11 12:19:22;;;;;;;3.10;1.33;;;30.30;59.10;;;;;;4979411;28;20100;-72
2022/08/11 12:27:22;;;;;;;3.15;0.60;;;30.30;59.10;;;;;;4995246;28;20115;-70
2022/08/11 12:29:54;;;;;;;0.60;0.40;;;30.20;60.40;;;;;;4983856;28;20038;-69
2022/08/11 12:32:21;;;;;;;2.00;1.13;;;30.20;59.30;;;;;;4980712;28;20133;-71
2022/08/11 12:34:48;;;;;;;2.65;0.60;;;30.30;59.30;;;;;;4980910;28;20041;-69
2022/08/11 12:37:18;;;;;;;8.75;0.85;;;30.30;59.00;;;;;;4983100;28;20034;-71
2022/08/11 12:45:26;;;;;;;2.05;0.85;;;30.30;58.50;;;;;;4980310;28;20450;-72
2022/08/11 12:53:31;;;;;;;1.50;0.75;;;30.20;58.30;;;;;;4979950;28;20150;-71
2022/08/11 12:58:48;;;;;;;4.68;0.80;;;30.20;57.80;;;;;;4982380;28;20053;-72
2022/08/11 13:06:44;;;;;;;7.70;0.80;;;30.10;58.00;;;;;;4982351;28;20454;-71
2022/08/11 13:09:10;;;;;;;0.65;0.40;;;30.20;57.60;;;;;;5013627;28;20034;-72
2022/08/11 13:14:26;;;;;;;1.08;0.57;;;30.00;57.50;;;;;;4983383;28;20084;-72
2022/08/11 13:19:37;;;;;;;1.15;0.52;;;30.00;58.20;;;;;;4979284;28;20045;-72
2022/08/11 13:22:04;;;;;;;0.80;0.50;;;30.10;58.10;;;;;;4982222;28;20122;-71
2022/08/11 13:24:33;;;;;;;1.77;0.70;;;30.10;58.00;;;;;;4979332;28;20716;-71
2022/08/11 13:26:58;;;;;;;1.55;0.98;;;30.10;59.30;;;;;;4982572;28;20064;-72
2022/08/11 13:29:26;;;;;;;4.22;0.40;;;30.20;57.80;;;;;;4982497;28;20038;-70
2022/08/11 13:31:55;;;;;;;4.65;1.02;;;30.20;58.80;;;;;;4982299;28;20058;-70
2022/08/11 13:34:25;;;;;;;3.37;0.90;;;30.20;57.90;;;;;;4980401;28;20034;-72
2022/08/11 13:36:53;;;;;;;1.00;0.50;;;30.10;58.50;;;;;;4982822;28;20042;-72
2022/08/11 13:39:25;;;;;;;1.83;0.77;;;30.10;58.70;;;;;;4980342;28;20121;-71
2022/08/11 13:41:56;;;;;;;1.80;0.65;;;30.10;59.30;;;;;;4978891;28;20104;-72
2022/08/11 13:44:26;;;;;;;1.90;0.73;;;30.20;57.80;;;;;;4977752;28;20041;-70
2022/08/11 13:46:56;;;;;;;2.63;0.68;;;30.30;57.80;;;;;;4981151;28;20534;-71
2022/08/11 13:49:22;;;;;;;1.27;0.40;;;30.20;59.40;;;;;;4977872;28;20050;-71
2022/08/11 13:51:48;;;;;;;2.45;0.50;;;30.20;58.30;;;;;;4978785;28;20042;-71
2022/08/11 13:54:25;;;;;;;0.88;0.50;;;30.20;57.80;;;;;;4978903;28;20049;-72
2022/08/11 13:56:55;;;;;;;0.90;0.40;;;30.20;58.20;;;;;;4980367;28;20026;-71
2022/08/11 13:59:21;;;;;;;2.08;0.95;;;30.10;59.50;;;;;;4982696;28;20144;-71
2022/08/11 14:01:53;;;;;;;2.78;0.88;;;30.00;57.90;;;;;;4983954;28;20038;-71
2022/08/11 14:04:29;;;;;;;0.85;0.52;;;30.00;58.70;;;;;;4983240;28;20050;-69
2022/08/11 14:06:59;;;;;;;1.17;0.70;;;30.00;58.00;;;;;;4984321;28;20034;-72
2022/08/11 14:09:26;;;;;;;;;;;30.00;58.00;;;;;;4986040;28;20085;-70
2022/08/11 14:14:46;;;;;;;6.65;0.80;;;30.00;58.60;;;;;;4984474;28;20093;-71
2022/08/11 14:17:16;;;;;;;1.83;0.57;;;30.10;58.40;;;;;;4984450;28;20101;-72
2022/08/11 14:19:44;;;;;;;1.33;0.47;;;30.10;57.90;;;;;;4984075;28;21529;-71
2022/08/11 14:22:14;;;;;;;0.85;0.50;;;30.10;58.70;;;;;;4984190;28;20121;-70
2022/08/11 14:24:42;;;;;;;1.20;0.70;;;30.00;58.50;;;;;;4985047;28;20035;-71
2022/08/11 14:27:13;;;;;;;3.30;0.60;;;30.00;58.90;;;;;;4985922;28;20117;-71
2022/08/11 14:29:40;;;;;;;0.95;0.50;;;30.10;58.00;;;;;;4986199;28;20046;-72
2022/08/11 14:32:09;;;;;;;1.10;0.52;;;30.20;58.00;;;;;;4986752;28;20662;-69
2022/08/11 14:34:39;;;;;;;4.30;0.98;;;30.20;57.70;;;;;;4984101;28;20030;-71
2022/08/11 14:37:11;;;;;;;;;;;30.20;57.10;;;;;;5017477;28;20906;-71
2022/08/11 14:39:44;;;;;;;0.93;0.45;;;30.20;56.70;;;;;;4983429;28;19921;-70
2022/08/11 14:48:03;;;;;;;2.63;0.63;;;30.30;64.90;;;;;;4981786;28;20077;-72
2022/08/11 14:50:31;;;;;;;2.80;0.60;;;30.20;64.20;;;;;;4983640;28;20394;-71
2022/08/11 14:53:07;;;;;;;1.48;0.75;;;30.30;65.20;;;;;;4983019;28;20097;-70
2022/08/11 14:58:29;;;;;;;3.63;0.75;;;30.10;66.10;;;;;;4981941;28;20045;-70
2022/08/11 15:01:00;;;;;;;0.65;0.32;;;30.10;65.30;;;;;;4984748;28;20475;-68
2022/08/11 15:03:28;;;;;;;1.25;0.28;;;30.10;66.20;;;;;;4982034;28;20098;-70
2022/08/11 15:05:56;;;;;;;4.75;0.70;;;30.00;65.20;;;;;;4983233;28;20053;-71
2022/08/11 15:08:53;;;;;;;1.00;0.68;;;30.00;65.60;;;;;;4982452;28;20487;-73
2022/08/11 15:12:07;;;;;;;5.88;0.60;;;29.90;64.70;;;;;;4982268;28;20034;-71
2022/08/11 15:13:59;;;;;;;2.53;0.45;;;29.90;64.60;;;;;;4982234;28;20046;-71
2022/08/11 15:19:12;;;;;;;4.03;0.55;;;29.90;66.30;;;;;;4983662;28;20125;-70
2022/08/11 15:24:23;;;;;;;3.20;0.90;;;29.80;66.50;;;;;;4980250;28;20104;-71
2022/08/11 15:37:57;;;;;;;3.10;0.40;;;29.60;65.90;;;;;;4977468;28;20130;-72
2022/08/11 15:46:18;;;;;;;3.30;0.55;;;29.60;67.20;;;;;;4986225;28;20050;-72
2022/08/11 15:48:47;;;;;;;1.20;0.60;;;29.60;67.60;;;;;;4977314;28;20129;-71
2022/08/11 15:51:21;;;;;;;1.92;0.77;;;29.60;60.60;;;;;;4978172;28;20034;-71
2022/08/11 15:53:58;;;;;;;4.85;0.40;;;29.60;60.40;;;;;;4977546;28;20073;-71
2022/08/11 15:56:29;;;;;;;2.40;0.55;;;29.60;62.20;;;;;;4975207;28;20026;-71
2022/08/11 16:04:31;;;;;;;1.27;0.50;;;29.60;59.80;;;;;;4986708;28;20041;-71
2022/08/11 16:07:00;;;;;;;2.63;0.75;;;29.60;60.90;;;;;;4975685;28;20487;-72
2022/08/11 16:09:38;;;;;;;3.30;0.52;;;29.50;66.70;;;;;;4975029;28;20122;-71
2022/08/11 16:12:16;;;;;;;1.58;0.68;;;29.50;64.60;;;;;;4978152;28;20596;-71
2022/08/11 16:17:35;;;;;;;2.28;0.80;;;29.50;60.20;;;;;;4974550;28;20045;-71
2022/08/11 16:20:02;;;;;;;4.65;0.95;;;29.60;59.90;;;;;;4978217;28;20062;-71
2022/08/11 16:22:40;;;;;;;0.45;0.30;;;29.60;60.20;;;;;;4984825;28;20426;-71
2022/08/11 16:25:09;;;;;;;0.55;0.38;;;29.60;59.50;;;;;;4987932;28;20113;-71
2022/08/11 16:27:40;;;;;;;5.60;0.80;;;29.60;59.20;;;;;;4978103;28;20049;-71
2022/08/11 16:30:07;;;;;;;0.52;0.32;;;29.60;59.60;;;;;;4979038;28;20034;-71
2022/08/11 16:32:37;;;;;;;5.05;0.68;;;29.50;60.20;;;;;;4977121;28;20046;-70
2022/08/11 16:40:40;;;;;;;0.98;0.43;;;29.50;60.20;;;;;;4967859;28;20041;-71
2022/08/11 16:48:42;;;;;;;2.10;0.60;;;29.40;61.00;;;;;;4989680;28;20323;-71
2022/08/11 16:51:11;;;;;;;2.47;0.55;;;29.40;60.80;;;;;;4977177;28;22657;-68
2022/08/11 16:53:38;;;;;;;4.77;0.47;;;29.40;60.80;;;;;;4974057;28;20506;-71
2022/08/11 16:56:06;;;;;;;4.53;0.32;;;29.30;60.80;;;;;;4973087;28;20041;-70
2022/08/11 17:01:21;;;;;;;5.30;0.50;;;29.20;62.00;;;;;;4986122;28;20518;-72
2022/08/11 17:16:05;;;;;;;5.40;0.50;;;29.00;62.10;;;;;;4975734;28;20041;-71
2022/08/11 17:17:56;;;;;;;3.03;0.60;;;29.00;61.70;;;;;;4975644;28;20031;-69
2022/08/11 17:20:24;;;;;;;3.50;0.80;;;29.00;61.90;;;;;;4984341;28;20501;-70
2022/08/11 17:25:38;;;;;;;5.82;0.95;;;29.00;61.70;;;;;;4980135;28;20042;-71
2022/08/11 17:28:05;;;;;;;8.48;1.02;;;28.90;62.10;;;;;;4974838;28;20038;-71
2022/08/11 17:36:01;;;;;;;2.15;0.70;;;28.70;62.60;;;;;;4979332;28;20041;-70
2022/08/11 17:38:28;;;;;;;7.55;0.70;;;28.70;62.70;;;;;;4986414;28;20564;-71
2022/08/11 17:49:19;;;;;;;2.30;0.50;;;28.70;62.00;;;;;;4979798;28;20039;-70
2022/08/11 18:00:06;;;;;;;1.45;0.63;;;28.50;63.30;;;;;;4981285;28;20541;-68
2022/08/11 18:05:32;;;;;;;1.15;0.40;;;28.40;64.00;;;;;;4986173;28;20041;-69
